createdAt,value
2018-03-11T00:01:59.929Z,48.45
2018-03-11T00:04:28.498Z,43.70
2018-03-11T00:06:57.699Z,46.13
2018-03-11T00:09:26.286Z,47.95
2018-03-11T00:11:55.067Z,47.53
2018-03-11T00:14:24.061Z,47.15
2018-03-11T00:16:52.710Z,47.20
2018-03-11T00:19:21.391Z,46.47
2018-03-11T00:21:50.225Z,49.20
2018-03-11T00:24:18.842Z,48.45
2018-03-11T00:26:47.600Z,48.17
2018-03-11T00:29:16.654Z,56.58
2018-03-11T00:31:45.121Z,49.47
2018-03-11T00:34:13.738Z,47.47
2018-03-11T00:36:43.156Z,45.65
2018-03-11T00:39:12.230Z,47.10
2018-03-11T00:41:40.847Z,46.00
2018-03-11T00:44:09.496Z,49.63
2018-03-11T00:46:38.068Z,47.97
2018-03-11T00:49:06.506Z,48.60
2018-03-11T00:51:35.149Z,47.67
2018-03-11T00:54:03.615Z,47.40
2018-03-11T00:56:32.091Z,51.22
2018-03-11T00:59:00.623Z,49.72
2018-03-11T01:01:29.688Z,47.60
2018-03-11T01:03:58.199Z,49.28
2018-03-11T01:06:27.553Z,50.22
2018-03-11T01:08:56.036Z,49.28
2018-03-11T01:11:24.465Z,45.85
2018-03-11T01:13:52.992Z,46.05
2018-03-11T01:16:22.342Z,47.53
2018-03-11T01:18:50.781Z,45.25
2018-03-11T01:21:20.140Z,45.90
2018-03-11T01:23:48.914Z,49.10
2018-03-11T01:26:17.503Z,49.30
2018-03-11T01:28:47.237Z,50.47
2018-03-11T01:31:15.705Z,43.95
2018-03-11T01:33:44.425Z,46.00
2018-03-11T01:36:13.005Z,45.53
2018-03-11T01:38:41.518Z,45.55
2018-03-11T01:41:10.041Z,44.25
2018-03-11T01:43:39.124Z,44.72
2018-03-11T01:46:07.569Z,44.60
2018-03-11T01:48:35.976Z,46.08
2018-03-11T01:51:04.578Z,43.63
2018-03-11T01:53:33.010Z,44.60
2018-03-11T01:56:01.431Z,45.67
2018-03-11T01:58:30.085Z,44.30
2018-03-11T02:00:58.528Z,45.08
2018-03-11T02:03:26.973Z,46.30
2018-03-11T02:05:56.748Z,44.08
2018-03-11T02:08:25.188Z,43.75
2018-03-11T02:10:54.339Z,43.10
2018-03-11T02:13:23.214Z,45.92
2018-03-11T02:15:51.662Z,48.42
2018-03-11T02:18:20.073Z,44.17
2018-03-11T02:20:48.594Z,49.20
2018-03-11T02:23:17.040Z,47.70
2018-03-11T02:25:45.552Z,48.47
2018-03-11T02:28:14.054Z,44.65
2018-03-11T02:30:42.723Z,47.08
2018-03-11T02:33:11.331Z,44.17
2018-03-11T02:35:39.829Z,46.20
2018-03-11T02:38:08.327Z,49.53
2018-03-11T02:40:36.760Z,46.40
2018-03-11T02:43:05.229Z,52.10
2018-03-11T02:45:33.878Z,50.05
2018-03-11T02:48:02.372Z,46.42
2018-03-11T02:50:31.410Z,48.58
2018-03-11T02:52:59.845Z,49.40
2018-03-11T02:55:28.416Z,54.08
2018-03-11T02:57:56.953Z,49.42
2018-03-11T03:00:25.410Z,47.78
2018-03-11T03:02:53.886Z,48.35
2018-03-11T03:05:22.647Z,48.80
2018-03-11T03:07:51.168Z,47.00
2018-03-11T03:10:19.629Z,46.47
2018-03-11T03:12:48.236Z,46.28
2018-03-11T03:15:17.228Z,44.53
2018-03-11T03:17:45.910Z,44.95
2018-03-11T03:20:14.394Z,45.92
2018-03-11T03:22:42.878Z,43.92
2018-03-11T03:25:11.424Z,43.55
2018-03-11T03:27:39.939Z,44.17
2018-03-11T03:30:08.424Z,46.22
2018-03-11T03:32:36.868Z,45.72
2018-03-11T03:35:05.895Z,43.60
2018-03-11T03:37:34.480Z,43.83
2018-03-11T03:40:02.961Z,45.42
2018-03-11T03:42:32.944Z,45.65
2018-03-11T03:45:01.359Z,47.20
2018-03-11T03:47:29.836Z,47.38
2018-03-11T03:49:58.422Z,47.10
2018-03-11T03:52:26.896Z,46.35
2018-03-11T03:54:55.382Z,45.40
2018-03-11T03:57:24.679Z,46.80
2018-03-11T03:59:53.091Z,46.65
2018-03-11T04:02:21.575Z,47.80
2018-03-11T04:04:50.086Z,47.70
2018-03-11T04:07:18.641Z,45.60
2018-03-11T04:09:47.186Z,46.20
2018-03-11T04:12:15.871Z,46.40
2018-03-11T04:14:44.321Z,47.97
2018-03-11T04:17:12.828Z,46.97
2018-03-11T04:19:42.330Z,48.05
2018-03-11T04:22:10.912Z,50.53
2018-03-11T04:24:39.346Z,48.47
2018-03-11T04:27:07.825Z,50.00
2018-03-11T04:29:37.225Z,45.40
2018-03-11T04:32:05.752Z,45.15
2018-03-11T04:34:35.231Z,49.92
2018-03-11T04:37:03.657Z,57.42
2018-03-11T04:39:33.048Z,46.42
2018-03-11T04:42:01.893Z,49.30
2018-03-11T04:44:30.459Z,45.55
2018-03-11T04:46:58.886Z,49.30
2018-03-11T04:49:28.220Z,47.30
2018-03-11T04:51:58.617Z,46.53
2018-03-11T04:54:27.107Z,48.30
2018-03-11T04:56:56.269Z,48.47
2018-03-11T04:59:24.876Z,48.65
2018-03-11T05:01:53.345Z,47.95
2018-03-11T05:04:22.784Z,47.03
2018-03-11T05:06:51.253Z,51.22
2018-03-11T05:09:19.790Z,48.00
2018-03-11T05:11:48.612Z,49.17
2018-03-11T05:14:17.121Z,48.15
2018-03-11T05:16:45.768Z,46.03
2018-03-11T05:19:14.255Z,46.78
2018-03-11T05:21:42.688Z,45.65
2018-03-11T05:24:11.548Z,47.05
2018-03-11T05:26:40.678Z,47.28
2018-03-11T05:29:09.197Z,45.08
2018-03-11T05:31:37.704Z,45.40
2018-03-11T05:34:06.261Z,48.10
2018-03-11T05:36:34.811Z,49.05
2018-03-11T05:39:03.427Z,47.50
2018-03-11T05:41:32.010Z,46.40
2018-03-11T05:44:00.460Z,45.40
2018-03-11T05:46:28.879Z,46.53
2018-03-11T05:48:57.443Z,45.05
2018-03-11T05:51:25.859Z,45.17
2018-03-11T05:53:54.279Z,47.15
2018-03-11T05:56:22.773Z,47.58
2018-03-11T05:58:51.193Z,47.42
2018-03-11T06:01:19.769Z,49.03
2018-03-11T06:03:48.316Z,46.95
2018-03-11T06:06:16.899Z,47.28
2018-03-11T06:08:45.700Z,48.05
2018-03-11T06:11:14.182Z,47.55
2018-03-11T06:13:42.982Z,51.15
2018-03-11T06:16:11.646Z,48.28
2018-03-11T06:18:40.374Z,48.05
2018-03-11T06:21:09.838Z,48.25
2018-03-11T06:23:38.257Z,47.72
2018-03-11T06:26:07.414Z,49.05
2018-03-11T06:28:36.142Z,50.25
2018-03-11T06:31:04.622Z,46.42
2018-03-11T06:33:34.086Z,48.25
2018-03-11T06:36:02.518Z,47.03
2018-03-11T06:38:30.934Z,46.50
2018-03-11T06:40:59.525Z,46.97
2018-03-11T06:43:27.998Z,47.47
2018-03-11T06:45:57.437Z,47.78
2018-03-11T06:48:25.920Z,46.10
2018-03-11T06:50:54.463Z,44.80
2018-03-11T06:53:23.041Z,48.20
2018-03-11T06:55:51.644Z,47.65
2018-03-11T06:58:20.162Z,48.20
2018-03-11T07:00:48.615Z,45.05
2018-03-11T07:03:17.141Z,46.72
2018-03-11T07:05:45.860Z,45.47
2018-03-11T07:08:14.332Z,45.05
2018-03-11T07:10:42.868Z,44.05
2018-03-11T07:13:11.401Z,45.25
2018-03-11T07:15:39.886Z,48.28
2018-03-11T07:18:09.087Z,47.97
2018-03-11T07:20:37.532Z,47.50
2018-03-11T07:23:06.014Z,51.75
2018-03-11T07:25:34.500Z,44.63
2018-03-11T07:28:02.983Z,63.05
2018-03-11T07:30:31.529Z,48.50
2018-03-11T07:33:00.446Z,48.92
2018-03-11T07:35:28.956Z,47.30
2018-03-11T07:37:57.525Z,45.15
2018-03-11T07:40:26.427Z,43.38
2018-03-11T07:42:54.873Z,44.92
2018-03-11T07:45:23.339Z,46.03
2018-03-11T07:47:52.271Z,46.45
2018-03-11T07:50:20.833Z,48.63
2018-03-11T07:52:49.305Z,42.95
2018-03-11T07:55:17.931Z,44.50
2018-03-11T07:57:46.456Z,48.42
2018-03-11T08:00:14.929Z,45.63
2018-03-11T08:02:47.835Z,46.05
2018-03-11T08:05:16.347Z,44.00
2018-03-11T08:07:44.859Z,42.70
2018-03-11T08:10:13.791Z,41.25
2018-03-11T08:12:42.377Z,46.53
2018-03-11T08:15:11.609Z,40.85
2018-03-11T08:17:40.384Z,45.25
2018-03-11T08:20:08.975Z,41.13
2018-03-11T08:22:37.452Z,42.85
2018-03-11T08:25:05.940Z,42.60
2018-03-11T08:27:34.461Z,45.08
2018-03-11T08:30:02.947Z,39.40
2018-03-11T08:32:39.588Z,42.20
2018-03-11T08:35:08.667Z,42.62
2018-03-11T08:37:38.191Z,37.70
2018-03-11T08:40:06.673Z,40.50
2018-03-11T08:42:35.262Z,38.47
2018-03-11T08:45:03.917Z,42.10
2018-03-11T08:47:34.088Z,41.83
2018-03-11T08:50:02.614Z,40.78
2018-03-11T08:52:31.132Z,40.33
2018-03-11T08:55:00.393Z,36.25
2018-03-11T08:57:28.884Z,40.65
2018-03-11T08:59:57.349Z,37.65
2018-03-11T09:02:26.239Z,39.53
2018-03-11T09:04:54.705Z,38.70
2018-03-11T09:07:23.231Z,35.17
2018-03-11T09:09:51.862Z,37.85
2018-03-11T09:12:22.223Z,36.60
2018-03-11T09:14:50.765Z,34.95
2018-03-11T09:17:19.584Z,36.30
2018-03-11T09:19:48.545Z,35.38
2018-03-11T09:22:17.069Z,40.38
2018-03-11T09:24:46.531Z,35.78
2018-03-11T09:27:15.159Z,33.07
2018-03-11T09:29:43.619Z,35.47
2018-03-11T09:32:12.463Z,39.75
2018-03-11T09:34:41.195Z,32.40
2018-03-11T09:37:09.769Z,35.00
2018-03-11T09:39:38.465Z,34.30
2018-03-11T09:42:07.037Z,32.97
2018-03-11T09:44:35.529Z,34.27
2018-03-11T09:47:04.458Z,35.47
2018-03-11T09:49:32.932Z,33.30
2018-03-11T09:52:01.440Z,33.70
2018-03-11T09:54:30.919Z,31.07
2018-03-11T09:56:59.552Z,31.37
2018-03-11T09:59:28.061Z,31.80
2018-03-11T10:01:57.337Z,30.30
2018-03-11T10:04:25.825Z,29.77
2018-03-11T10:06:54.505Z,28.70
2018-03-11T10:09:23.149Z,29.27
2018-03-11T10:11:51.920Z,28.93
2018-03-11T10:14:21.179Z,27.13
2018-03-11T10:16:49.815Z,27.60
2018-03-11T10:19:18.474Z,27.77
2018-03-11T10:21:47.081Z,29.20
2018-03-11T10:24:16.231Z,29.13
2018-03-11T10:26:44.837Z,29.50
2018-03-11T10:29:13.492Z,30.77
2018-03-11T10:31:43.100Z,29.17
2018-03-11T10:34:11.657Z,29.40
2018-03-11T10:36:40.271Z,29.20
2018-03-11T10:39:08.759Z,28.40
2018-03-11T10:41:37.253Z,26.67
2018-03-11T10:44:05.785Z,26.17
2018-03-11T10:46:34.448Z,25.70
2018-03-11T10:49:03.188Z,27.37
2018-03-11T10:51:31.802Z,31.97
2018-03-11T10:54:00.390Z,28.37
2018-03-11T10:56:29.100Z,24.93
2018-03-11T10:58:57.525Z,27.90
2018-03-11T11:01:31.634Z,24.50
2018-03-11T11:04:02.884Z,26.37
2018-03-11T11:06:31.641Z,25.20
2018-03-11T11:09:00.269Z,24.87
2018-03-11T11:11:28.754Z,23.47
2018-03-11T11:13:57.311Z,25.30
2018-03-11T11:16:26.556Z,22.73
2018-03-11T11:18:55.086Z,23.50
2018-03-11T11:21:23.682Z,23.00
2018-03-11T11:23:53.113Z,19.53
2018-03-11T11:26:21.588Z,22.07
2018-03-11T11:28:50.356Z,20.60
2018-03-11T11:31:19.200Z,20.33
2018-03-11T11:33:47.827Z,20.23
2018-03-11T11:36:16.352Z,20.80
2018-03-11T11:38:44.991Z,20.37
2018-03-11T11:41:13.574Z,20.40
2018-03-11T11:43:43.070Z,19.10
2018-03-11T11:46:12.277Z,18.30
2018-03-11T11:48:40.885Z,18.73
2018-03-11T11:51:09.858Z,19.43
2018-03-11T11:53:38.848Z,18.67
2018-03-11T11:56:07.596Z,18.30
2018-03-11T11:58:36.041Z,18.67
2018-03-11T12:01:04.806Z,18.70
2018-03-11T12:03:33.388Z,18.30
2018-03-11T12:06:01.967Z,18.27
2018-03-11T12:08:30.672Z,18.60
2018-03-11T12:10:59.178Z,17.97
2018-03-11T12:13:27.641Z,16.83
2018-03-11T12:15:56.999Z,17.20
2018-03-11T12:18:25.634Z,17.93
2018-03-11T12:20:54.125Z,19.37
2018-03-11T12:23:22.764Z,16.10
2018-03-11T12:25:51.219Z,15.60
2018-03-11T12:28:20.656Z,15.53
2018-03-11T12:30:49.133Z,14.00
2018-03-11T12:33:17.568Z,15.07
2018-03-11T12:35:46.100Z,14.13
2018-03-11T12:38:15.503Z,15.83
2018-03-11T12:40:44.016Z,15.30
2018-03-11T12:43:12.460Z,17.33
2018-03-11T12:45:42.350Z,17.77
2018-03-11T12:48:10.967Z,16.07
2018-03-11T12:50:40.732Z,17.17
2018-03-11T12:53:09.241Z,17.17
2018-03-11T12:55:37.736Z,18.03
2018-03-11T12:58:06.238Z,17.80
2018-03-11T13:00:34.949Z,18.30
2018-03-11T13:03:03.434Z,17.40
2018-03-11T13:05:31.887Z,17.23
2018-03-11T13:08:03.159Z,14.03
2018-03-11T13:10:31.597Z,13.90
2018-03-11T13:13:00.084Z,12.77
2018-03-11T13:15:28.605Z,12.43
2018-03-11T13:17:58.206Z,13.43
2018-03-11T13:20:38.993Z,14.23
2018-03-11T13:23:07.464Z,12.83
2018-03-11T13:25:35.924Z,13.23
2018-03-11T13:28:16.715Z,14.27
2018-03-11T13:30:45.456Z,13.60
2018-03-11T13:33:27.041Z,15.37
2018-03-11T13:35:55.517Z,13.77
2018-03-11T13:38:35.843Z,13.40
2018-03-11T13:41:04.324Z,16.63
2018-03-11T13:43:32.993Z,14.07
2018-03-11T13:46:14.147Z,14.77
2018-03-11T13:48:42.772Z,13.37
2018-03-11T13:51:11.335Z,13.83
2018-03-11T13:53:49.935Z,15.10
2018-03-11T13:56:18.441Z,14.50
2018-03-11T13:58:47.041Z,13.97
2018-03-11T14:01:15.713Z,14.37
2018-03-11T14:03:44.268Z,13.87
2018-03-11T14:06:12.963Z,13.40
2018-03-11T14:08:41.565Z,13.60
2018-03-11T14:11:10.232Z,13.10
2018-03-11T14:13:38.746Z,13.87
2018-03-11T14:16:07.702Z,13.13
2018-03-11T14:18:36.163Z,13.23
2018-03-11T14:21:04.804Z,12.50
2018-03-11T14:23:33.289Z,12.63
2018-03-11T14:26:01.899Z,12.93
2018-03-11T14:28:30.438Z,13.93
2018-03-11T14:30:58.994Z,12.77
2018-03-11T14:33:27.559Z,11.47
2018-03-11T14:35:57.155Z,13.00
2018-03-11T14:38:26.038Z,11.50
2018-03-11T14:40:54.517Z,13.10
2018-03-11T14:43:23.044Z,13.77
2018-03-11T14:45:51.895Z,13.00
2018-03-11T14:48:21.764Z,13.87
2018-03-11T14:50:50.803Z,13.37
2018-03-11T14:53:19.337Z,13.10
2018-03-11T14:55:47.997Z,12.67
2018-03-11T14:58:18.472Z,13.73
2018-03-11T15:00:47.249Z,13.97
2018-03-11T15:03:15.775Z,14.10
2018-03-11T15:05:44.307Z,15.20
2018-03-11T15:08:13.196Z,15.17
2018-03-11T15:10:41.986Z,13.40
2018-03-11T15:13:12.209Z,14.83
2018-03-11T15:15:40.794Z,14.07
2018-03-11T15:18:09.741Z,14.67
2018-03-11T15:20:38.337Z,13.40
2018-03-11T15:23:08.289Z,12.20
2018-03-11T15:25:36.911Z,11.83
2018-03-11T15:28:05.362Z,12.10
2018-03-11T15:30:34.857Z,12.23
2018-03-11T15:33:03.545Z,10.93
2018-03-11T15:35:32.065Z,10.57
2018-03-11T15:38:02.101Z,9.03
2018-03-11T15:40:30.565Z,11.40
2018-03-11T15:42:58.997Z,10.10
2018-03-11T15:45:27.884Z,9.20
2018-03-11T15:47:56.353Z,9.93
2018-03-11T15:50:24.840Z,8.47
2018-03-11T15:52:53.796Z,10.23
2018-03-11T15:55:22.339Z,10.47
2018-03-11T15:57:50.854Z,8.70
2018-03-11T16:00:20.382Z,8.93
2018-03-11T16:02:49.184Z,12.00
2018-03-11T16:05:17.852Z,9.53
2018-03-11T16:07:47.338Z,9.60
2018-03-11T16:10:15.825Z,10.37
2018-03-11T16:12:44.337Z,9.00
2018-03-11T16:15:13.899Z,9.53
2018-03-11T16:17:42.723Z,9.40
2018-03-11T16:20:12.993Z,8.37
2018-03-11T16:22:42.052Z,10.00
2018-03-11T16:25:10.833Z,8.37
2018-03-11T16:27:39.405Z,10.47
2018-03-11T16:30:08.725Z,9.80
2018-03-11T16:32:37.218Z,10.53
2018-03-11T16:35:05.773Z,9.33
2018-03-11T16:37:34.590Z,9.97
2018-03-11T16:40:03.120Z,10.50
2018-03-11T16:42:31.749Z,9.90
2018-03-11T16:45:00.733Z,9.70
2018-03-11T16:47:29.254Z,10.90
2018-03-11T16:49:58.866Z,10.73
2018-03-11T16:52:27.895Z,11.07
2018-03-11T16:54:56.605Z,10.40
2018-03-11T16:57:39.285Z,11.90
2018-03-11T17:00:08.380Z,10.70
2018-03-11T17:02:37.949Z,9.83
2018-03-11T17:05:06.712Z,11.07
2018-03-11T17:07:35.367Z,10.40
2018-03-11T17:10:03.959Z,10.50
2018-03-11T17:12:33.041Z,10.40
2018-03-11T17:15:01.718Z,10.07
2018-03-11T17:17:30.266Z,11.57
2018-03-11T17:19:58.881Z,10.77
2018-03-11T17:22:27.440Z,10.67
2018-03-11T17:24:56.097Z,10.47
2018-03-11T17:27:24.848Z,11.07
2018-03-11T17:29:53.394Z,10.13
2018-03-11T17:32:22.627Z,10.60
2018-03-11T17:34:51.610Z,10.33
2018-03-11T17:37:20.268Z,12.27
2018-03-11T17:39:51.202Z,11.50
2018-03-11T17:42:19.824Z,10.77
2018-03-11T17:44:48.419Z,10.90
2018-03-11T17:47:17.301Z,11.67
2018-03-11T17:49:48.706Z,13.10
2018-03-11T17:52:17.775Z,12.33
2018-03-11T17:54:46.494Z,13.13
2018-03-11T17:57:15.080Z,13.60
2018-03-11T17:59:44.789Z,11.30
2018-03-11T18:02:13.260Z,11.30
2018-03-11T18:04:42.152Z,11.30
2018-03-11T18:07:11.129Z,12.40
2018-03-11T18:09:39.630Z,11.37
2018-03-11T18:12:08.423Z,12.30
2018-03-11T18:14:36.987Z,11.80
2018-03-11T18:17:05.571Z,12.00
2018-03-11T18:19:34.130Z,13.60
2018-03-11T18:22:02.705Z,13.43
2018-03-11T18:24:31.218Z,12.97
2018-03-11T18:26:59.938Z,12.63
2018-03-11T18:29:28.444Z,11.80
2018-03-11T18:31:58.219Z,12.60
2018-03-11T18:34:27.793Z,13.47
2018-03-11T18:36:56.295Z,12.93
2018-03-11T18:39:25.008Z,14.77
2018-03-11T18:41:53.761Z,14.30
2018-03-11T18:44:22.372Z,15.27
2018-03-11T18:46:50.839Z,13.70
2018-03-11T18:49:19.726Z,13.30
2018-03-11T18:51:48.228Z,14.00
2018-03-11T18:54:16.903Z,15.30
2018-03-11T18:56:45.524Z,15.43
2018-03-11T18:59:14.793Z,16.50
2018-03-11T19:01:43.610Z,15.87
2018-03-11T19:04:13.355Z,16.03
2018-03-11T19:06:42.515Z,15.67
2018-03-11T19:09:11.881Z,17.00
2018-03-11T19:11:40.874Z,16.90
2018-03-11T19:14:10.088Z,23.37
2018-03-11T19:16:38.980Z,21.83
2018-03-11T19:19:08.420Z,21.53
2018-03-11T19:21:45.264Z,16.93
2018-03-11T19:24:20.285Z,17.80
2018-03-11T19:26:54.086Z,16.53
2018-03-11T19:29:23.389Z,17.40
2018-03-11T19:31:57.738Z,16.70
2018-03-11T19:34:31.816Z,15.97
2018-03-11T19:37:05.960Z,16.60
2018-03-11T19:39:34.621Z,17.13
2018-03-11T19:42:03.207Z,14.80
2018-03-11T19:44:31.651Z,16.73
2018-03-11T19:47:00.169Z,15.80
2018-03-11T19:49:43.917Z,17.87
2018-03-11T19:52:13.627Z,15.60
2018-03-11T19:54:42.297Z,17.90
2018-03-11T19:57:11.537Z,15.97
2018-03-11T19:59:40.076Z,17.27
2018-03-11T20:02:08.666Z,18.83
2018-03-11T20:04:37.239Z,18.40
2018-03-11T20:07:05.964Z,17.00
2018-03-11T20:09:34.453Z,17.80
2018-03-11T20:12:03.005Z,19.53
2018-03-11T20:14:31.622Z,19.73
2018-03-11T20:17:00.320Z,21.07
2018-03-11T20:19:28.788Z,21.33
2018-03-11T20:21:57.468Z,19.80
2018-03-11T20:24:26.035Z,19.23
2018-03-11T20:26:54.526Z,19.33
2018-03-11T20:29:23.091Z,20.03
2018-03-11T20:31:51.621Z,19.10
2018-03-11T20:34:21.573Z,21.50
2018-03-11T20:36:50.196Z,18.90
2018-03-11T20:39:18.748Z,18.97
2018-03-11T20:41:47.581Z,20.53
2018-03-11T20:44:17.354Z,20.07
2018-03-11T20:46:46.170Z,18.93
2018-03-11T20:49:14.963Z,20.93
2018-03-11T20:51:44.262Z,19.47
2018-03-11T20:54:14.779Z,23.30
2018-03-11T20:56:43.594Z,19.67
2018-03-11T20:59:12.446Z,24.10
2018-03-11T21:01:41.155Z,20.57
2018-03-11T21:04:09.830Z,19.33
2018-03-11T21:06:38.562Z,20.00
2018-03-11T21:09:07.010Z,19.87
2018-03-11T21:11:35.636Z,21.30
2018-03-11T21:14:05.291Z,20.70
2018-03-11T21:16:33.858Z,20.83
2018-03-11T21:19:02.492Z,22.57
2018-03-11T21:21:32.254Z,20.27
2018-03-11T21:24:00.735Z,27.07
2018-03-11T21:26:29.254Z,22.00
2018-03-11T21:28:58.416Z,22.67
2018-03-11T21:31:26.870Z,23.73
2018-03-11T21:33:56.137Z,22.10
2018-03-11T21:36:24.644Z,23.80
2018-03-11T21:38:53.099Z,23.73
2018-03-11T21:41:21.556Z,24.23
2018-03-11T21:43:50.976Z,25.67
2018-03-11T21:46:19.874Z,23.10
2018-03-11T21:48:48.638Z,24.33
2018-03-11T21:51:17.643Z,23.37
2018-03-11T21:53:47.290Z,23.30
2018-03-11T21:56:16.374Z,24.37
2018-03-11T21:58:45.666Z,22.40
2018-03-11T22:01:15.048Z,24.20
2018-03-11T22:03:45.192Z,22.00
2018-03-11T22:06:14.869Z,27.73
2018-03-11T22:08:43.940Z,24.30
2018-03-11T22:11:13.572Z,26.90
2018-03-11T22:13:42.130Z,25.07
2018-03-11T22:16:14.987Z,25.40
2018-03-11T22:18:44.360Z,22.10
2018-03-11T22:21:13.445Z,21.20
2018-03-11T22:23:42.979Z,23.57
2018-03-11T22:26:12.239Z,24.17
2018-03-11T22:28:42.187Z,23.37
2018-03-11T22:31:13.612Z,23.93
2018-03-11T22:33:43.744Z,24.47
2018-03-11T22:36:12.643Z,23.87
2018-03-11T22:38:42.649Z,23.40
2018-03-11T22:41:11.547Z,22.40
2018-03-11T22:43:44.079Z,24.17
2018-03-11T22:46:12.976Z,22.90
2018-03-11T22:48:42.038Z,23.20
2018-03-11T22:51:10.935Z,23.80
2018-03-11T22:53:39.467Z,24.50
2018-03-11T22:56:07.942Z,25.03
2018-03-11T22:58:36.578Z,28.77
2018-03-11T23:01:05.217Z,28.30
2018-03-11T23:03:34.307Z,35.73
2018-03-11T23:06:02.791Z,28.23
2018-03-11T23:08:31.264Z,26.50
2018-03-11T23:10:59.801Z,26.93
2018-03-11T23:13:29.054Z,34.03
2018-03-11T23:16:00.711Z,29.30
2018-03-11T23:18:29.263Z,29.93
2018-03-11T23:20:59.389Z,28.67
2018-03-11T23:23:27.985Z,30.17
2018-03-11T23:25:57.378Z,30.60
2018-03-11T23:28:25.913Z,33.77
2018-03-11T23:30:54.598Z,28.60
2018-03-11T23:33:24.125Z,26.17
2018-03-11T23:35:53.542Z,27.33
2018-03-11T23:38:22.086Z,26.27
2018-03-11T23:40:50.695Z,28.40
2018-03-11T23:43:19.849Z,30.60
2018-03-11T23:45:48.550Z,32.23
2018-03-11T23:48:17.274Z,31.70
2018-03-11T23:50:46.330Z,28.53
2018-03-11T23:53:15.404Z,31.50
2018-03-11T23:55:44.282Z,30.27
2018-03-11T23:58:14.115Z,30.27
